sensor_id;sensor_type;location;lat;lon;timestamp;P1;P2;P0
55686;PMS5003;41911;52.362;4.978;2023-04-01T00:00:17;16.0;13.0;
55686;PMS5003;41911;52.362;4.978;2023-04-01T00:00:50;14.0;11.0;
55686;PMS5003;41911;52.362;4.978;2023-04-01T00:01:21;16.0;14.0;
55686;PMS5003;41911;52.362;4.978;2023-04-01T00:01:53;10.0;9.0;
55686;PMS5003;41911;52.362;4.978;2023-04-01T00:02:23;12.0;10.0;
55686;PMS5003;41911;52.362;4.978;2023-04-01T00:02:54;13.0;12.0;
55686;PMS5003;41911;52.362;4.978;2023-04-01T00:03:26;11.0;11.0;
55686;PMS5003;41911;52.362;4.978;2023-04-01T00:03:57;12.0;12.0;
55686;PMS5003;41911;52.362;4.978;2023-04-01T00:04:28;13.0;11.0;
55686;PMS5003;41911;52.362;4.978;2023-04-01T00:04:59;9.0;9.0;
55686;PMS5003;41911;52.362;4.978;2023-04-01T00:05:30;12.0;11.0;
55686;PMS5003;41911;52.362;4.978;2023-04-01T00:06:01;9.0;9.0;
55686;PMS5003;41911;52.362;4.978;2023-04-01T00:06:33;10.0;8.0;
55686;PMS5003;41911;52.362;4.978;2023-04-01T00:07:04;12.0;10.0;
55686;PMS5003;41911;52.362;4.978;2023-04-01T00:07:35;12.0;11.0;
55686;PMS5003;41911;52.362;4.978;2023-04-01T00:08:05;15.0;12.0;
55686;PMS5003;41911;52.362;4.978;2023-04-01T00:08:36;13.0;10.0;
55686;PMS5003;41911;52.362;4.978;2023-04-01T00:09:08;12.0;9.0;
55686;PMS5003;41911;52.362;4.978;2023-04-01T00:09:39;17.0;14.0;
55686;PMS5003;41911;52.362;4.978;2023-04-01T00:10:11;13.0;13.0;
55686;PMS5003;41911;52.362;4.978;2023-04-01T00:10:43;15.0;12.0;
55686;PMS5003;41911;52.362;4.978;2023-04-01T00:11:14;12.0;9.0;
55686;PMS5003;41911;52.362;4.978;2023-04-01T00:11:46;9.0;8.0;
55686;PMS5003;41911;52.362;4.978;2023-04-01T00:12:17;13.0;11.0;
55686;PMS5003;41911;52.362;4.978;2023-04-01T00:12:48;17.0;13.0;
55686;PMS5003;41911;52.362;4.978;2023-04-01T00:13:20;16.0;13.0;
55686;PMS5003;41911;52.362;4.978;2023-04-01T00:13:51;6.0;6.0;
55686;PMS5003;41911;52.362;4.978;2023-04-01T00:14:22;11.0;8.0;
55686;PMS5003;41911;52.362;4.978;2023-04-01T00:14:53;9.0;8.0;
55686;PMS5003;41911;52.362;4.978;2023-04-01T00:15:24;11.0;10.0;
55686;PMS5003;41911;52.362;4.978;2023-04-01T00:15:55;11.0;9.0;
55686;PMS5003;41911;52.362;4.978;2023-04-01T00:16:27;10.0;9.0;
55686;PMS5003;41911;52.362;4.978;2023-04-01T00:16:58;12.0;11.0;
55686;PMS5003;41911;52.362;4.978;2023-04-01T00:17:29;15.0;12.0;
55686;PMS5003;41911;52.362;4.978;2023-04-01T00:18:00;15.0;12.0;
55686;PMS5003;41911;52.362;4.978;2023-04-01T00:18:31;15.0;11.0;
55686;PMS5003;41911;52.362;4.978;2023-04-01T00:19:02;15.0;11.0;
55686;PMS5003;41911;52.362;4.978;2023-04-01T00:19:33;17.0;12.0;
55686;PMS5003;41911;52.362;4.978;2023-04-01T00:20:05;10.0;9.0;
55686;PMS5003;41911;52.362;4.978;2023-04-01T00:20:37;11.0;10.0;
55686;PMS5003;41911;52.362;4.978;2023-04-01T00:21:08;14.0;13.0;
55686;PMS5003;41911;52.362;4.978;2023-04-01T00:21:39;14.0;11.0;
55686;PMS5003;41911;52.362;4.978;2023-04-01T00:22:10;13.0;12.0;
55686;PMS5003;41911;52.362;4.978;2023-04-01T00:22:41;12.0;10.0;
55686;PMS5003;41911;52.362;4.978;2023-04-01T00:23:12;14.0;12.0;
55686;PMS5003;41911;52.362;4.978;2023-04-01T00:23:44;16.0;11.0;
55686;PMS5003;41911;52.362;4.978;2023-04-01T00:24:15;10.0;8.0;
55686;PMS5003;41911;52.362;4.978;2023-04-01T00:24:46;18.0;17.0;
55686;PMS5003;41911;52.362;4.978;2023-04-01T00:25:17;15.0;11.0;
55686;PMS5003;41911;52.362;4.978;2023-04-01T00:25:49;15.0;12.0;
55686;PMS5003;41911;52.362;4.978;2023-04-01T00:26:20;13.0;11.0;
55686;PMS5003;41911;52.362;4.978;2023-04-01T00:26:51;11.0;9.0;
55686;PMS5003;41911;52.362;4.978;2023-04-01T00:27:23;10.0;9.0;
55686;PMS5003;41911;52.362;4.978;2023-04-01T00:27:54;12.0;10.0;
55686;PMS5003;41911;52.362;4.978;2023-04-01T00:28:25;12.0;10.0;
55686;PMS5003;41911;52.362;4.978;2023-04-01T00:28:56;10.0;8.0;
55686;PMS5003;41911;52.362;4.978;2023-04-01T00:29:28;10.0;9.0;
55686;PMS5003;41911;52.362;4.978;2023-04-01T00:29:59;15.0;12.0;
55686;PMS5003;41911;52.362;4.978;2023-04-01T00:30:30;15.0;13.0;
55686;PMS5003;41911;52.362;4.978;2023-04-01T00:31:03;13.0;9.0;
55686;PMS5003;41911;52.362;4.978;2023-04-01T00:31:35;13.0;11.0;
55686;PMS5003;41911;52.362;4.978;2023-04-01T00:32:06;14.0;10.0;
55686;PMS5003;41911;52.362;4.978;2023-04-01T00:32:37;11.0;10.0;
55686;PMS5003;41911;52.362;4.978;2023-04-01T00:33:08;12.0;10.0;
55686;PMS5003;41911;52.362;4.978;2023-04-01T00:33:40;9.0;9.0;
55686;PMS5003;41911;52.362;4.978;2023-04-01T00:34:11;14.0;10.0;
55686;PMS5003;41911;52.362;4.978;2023-04-01T00:34:45;12.0;10.0;
55686;PMS5003;41911;52.362;4.978;2023-04-01T00:35:19;14.0;11.0;
55686;PMS5003;41911;52.362;4.978;2023-04-01T00:35:50;12.0;9.0;
55686;PMS5003;41911;52.362;4.978;2023-04-01T00:36:22;14.0;11.0;
55686;PMS5003;41911;52.362;4.978;2023-04-01T00:36:53;13.0;9.0;
55686;PMS5003;41911;52.362;4.978;2023-04-01T00:37:24;10.0;9.0;
55686;PMS5003;41911;52.362;4.978;2023-04-01T00:37:55;13.0;11.0;
55686;PMS5003;41911;52.362;4.978;2023-04-01T00:38:26;11.0;9.0;
55686;PMS5003;41911;52.362;4.978;2023-04-01T00:38:57;11.0;8.0;
55686;PMS5003;41911;52.362;4.978;2023-04-01T00:39:28;14.0;11.0;
55686;PMS5003;41911;52.362;4.978;2023-04-01T00:40:00;10.0;9.0;
55686;PMS5003;41911;52.362;4.978;2023-04-01T00:40:33;13.0;9.0;
55686;PMS5003;41911;52.362;4.978;2023-04-01T00:41:05;10.0;10.0;
55686;PMS5003;41911;52.362;4.978;2023-04-01T00:41:37;10.0;10.0;
55686;PMS5003;41911;52.362;4.978;2023-04-01T00:42:08;10.0;8.0;
55686;PMS5003;41911;52.362;4.978;2023-04-01T00:42:40;16.0;11.0;
55686;PMS5003;41911;52.362;4.978;2023-04-01T00:43:12;10.0;9.0;
55686;PMS5003;41911;52.362;4.978;2023-04-01T00:43:44;16.0;13.0;
55686;PMS5003;41911;52.362;4.978;2023-04-01T00:44:19;17.0;12.0;
55686;PMS5003;41911;52.362;4.978;2023-04-01T00:44:52;15.0;11.0;
55686;PMS5003;41911;52.362;4.978;2023-04-01T00:45:27;10.0;9.0;
55686;PMS5003;41911;52.362;4.978;2023-04-01T00:46:00;12.0;9.0;
55686;PMS5003;41911;52.362;4.978;2023-04-01T00:46:32;11.0;9.0;
55686;PMS5003;41911;52.362;4.978;2023-04-01T00:47:03;9.0;7.0;
55686;PMS5003;41911;52.362;4.978;2023-04-01T00:47:34;11.0;9.0;
55686;PMS5003;41911;52.362;4.978;2023-04-01T00:48:05;10.0;8.0;
55686;PMS5003;41911;52.362;4.978;2023-04-01T00:48:42;9.0;7.0;
55686;PMS5003;41911;52.362;4.978;2023-04-01T00:49:19;7.0;6.0;
55686;PMS5003;41911;52.362;4.978;2023-04-01T00:49:53;9.0;6.0;
55686;PMS5003;41911;52.362;4.978;2023-04-01T00:50:25;7.0;5.0;
55686;PMS5003;41911;52.362;4.978;2023-04-01T00:50:59;8.0;6.0;
55686;PMS5003;41911;52.362;4.978;2023-04-01T00:51:33;7.0;6.0;
55686;PMS5003;41911;52.362;4.978;2023-04-01T00:52:04;5.0;5.0;
55686;PMS5003;41911;52.362;4.978;2023-04-01T00:52:37;10.0;8.0;
55686;PMS5003;41911;52.362;4.978;2023-04-01T00:53:08;8.0;6.0;
55686;PMS5003;41911;52.362;4.978;2023-04-01T00:53:41;8.0;6.0;
55686;PMS5003;41911;52.362;4.978;2023-04-01T00:54:15;7.0;6.0;
55686;PMS5003;41911;52.362;4.978;2023-04-01T00:54:49;7.0;6.0;
55686;PMS5003;41911;52.362;4.978;2023-04-01T00:55:23;12.0;8.0;
55686;PMS5003;41911;52.362;4.978;2023-04-01T00:55:59;5.0;4.0;
55686;PMS5003;41911;52.362;4.978;2023-04-01T00:56:33;9.0;5.0;
55686;PMS5003;41911;52.362;4.978;2023-04-01T00:57:07;7.0;6.0;
55686;PMS5003;41911;52.362;4.978;2023-04-01T00:57:45;8.0;7.0;
55686;PMS5003;41911;52.362;4.978;2023-04-01T00:58:20;7.0;6.0;
55686;PMS5003;41911;52.362;4.978;2023-04-01T00:58:54;9.0;7.0;
55686;PMS5003;41911;52.362;4.978;2023-04-01T00:59:29;10.0;7.0;
55686;PMS5003;41911;52.362;4.978;2023-04-01T01:00:05;8.0;6.0;
55686;PMS5003;41911;52.362;4.978;2023-04-01T01:00:39;9.0;7.0;
55686;PMS5003;41911;52.362;4.978;2023-04-01T01:01:10;7.0;6.0;
55686;PMS5003;41911;52.362;4.978;2023-04-01T01:01:41;8.0;6.0;
55686;PMS5003;41911;52.362;4.978;2023-04-01T01:02:13;7.0;5.0;
55686;PMS5003;41911;52.362;4.978;2023-04-01T01:02:45;9.0;6.0;
55686;PMS5003;41911;52.362;4.978;2023-04-01T01:03:17;8.0;8.0;
55686;PMS5003;41911;52.362;4.978;2023-04-01T01:03:48;8.0;8.0;
55686;PMS5003;41911;52.362;4.978;2023-04-01T01:04:21;6.0;4.0;
55686;PMS5003;41911;52.362;4.978;2023-04-01T01:04:53;10.0;9.0;
55686;PMS5003;41911;52.362;4.978;2023-04-01T01:05:28;8.0;7.0;
55686;PMS5003;41911;52.362;4.978;2023-04-01T01:06:10;7.0;6.0;
55686;PMS5003;41911;52.362;4.978;2023-04-01T01:06:51;7.0;7.0;
55686;PMS5003;41911;52.362;4.978;2023-04-01T01:07:32;6.0;6.0;
55686;PMS5003;41911;52.362;4.978;2023-04-01T01:08:10;9.0;6.0;
55686;PMS5003;41911;52.362;4.978;2023-04-01T01:08:55;9.0;7.0;
55686;PMS5003;41911;52.362;4.978;2023-04-01T01:09:39;10.0;8.0;
55686;PMS5003;41911;52.362;4.978;2023-04-01T01:10:23;9.0;7.0;
55686;PMS5003;41911;52.362;4.978;2023-04-01T01:10:58;9.0;8.0;
55686;PMS5003;41911;52.362;4.978;2023-04-01T01:11:33;11.0;11.0;
55686;PMS5003;41911;52.362;4.978;2023-04-01T01:12:08;10.0;6.0;
55686;PMS5003;41911;52.362;4.978;2023-04-01T01:12:45;12.0;10.0;
55686;PMS5003;41911;52.362;4.978;2023-04-01T01:13:23;9.0;8.0;
55686;PMS5003;41911;52.362;4.978;2023-04-01T01:14:03;8.0;8.0;
55686;PMS5003;41911;52.362;4.978;2023-04-01T01:14:51;10.0;10.0;
55686;PMS5003;41911;52.362;4.978;2023-04-01T01:15:32;9.0;7.0;
55686;PMS5003;41911;52.362;4.978;2023-04-01T01:16:09;8.0;7.0;
55686;PMS5003;41911;52.362;4.978;2023-04-01T01:16:47;8.0;8.0;
55686;PMS5003;41911;52.362;4.978;2023-04-01T01:17:26;8.0;5.0;
55686;PMS5003;41911;52.362;4.978;2023-04-01T01:18:06;7.0;7.0;
55686;PMS5003;41911;52.362;4.978;2023-04-01T01:18:43;10.0;9.0;
55686;PMS5003;41911;52.362;4.978;2023-04-01T01:19:31;11.0;9.0;
55686;PMS5003;41911;52.362;4.978;2023-04-01T01:20:25;8.0;7.0;
55686;PMS5003;41911;52.362;4.978;2023-04-01T01:21:32;11.0;11.0;
55686;PMS5003;41911;52.362;4.978;2023-04-01T01:22:22;10.0;9.0;
55686;PMS5003;41911;52.362;4.978;2023-04-01T01:23:13;9.0;8.0;
55686;PMS5003;41911;52.362;4.978;2023-04-01T01:24:08;10.0;10.0;
55686;PMS5003;41911;52.362;4.978;2023-04-01T01:24:53;11.0;10.0;
55686;PMS5003;41911;52.362;4.978;2023-04-01T01:25:40;10.0;9.0;
55686;PMS5003;41911;52.362;4.978;2023-04-01T01:26:33;10.0;10.0;
55686;PMS5003;41911;52.362;4.978;2023-04-01T01:27:15;10.0;8.0;
55686;PMS5003;41911;52.362;4.978;2023-04-01T01:27:49;8.0;8.0;
55686;PMS5003;41911;52.362;4.978;2023-04-01T01:28:32;6.0;5.0;
55686;PMS5003;41911;52.362;4.978;2023-04-01T01:29:22;12.0;11.0;
55686;PMS5003;41911;52.362;4.978;2023-04-01T01:30:15;8.0;7.0;
55686;PMS5003;41911;52.362;4.978;2023-04-01T01:31:00;8.0;8.0;
55686;PMS5003;41911;52.362;4.978;2023-04-01T01:31:43;8.0;7.0;
55686;PMS5003;41911;52.362;4.978;2023-04-01T01:32:29;7.0;6.0;
55686;PMS5003;41911;52.362;4.978;2023-04-01T01:33:15;9.0;7.0;
55686;PMS5003;41911;52.362;4.978;2023-04-01T01:34:02;8.0;6.0;
55686;PMS5003;41911;52.362;4.978;2023-04-01T01:34:45;11.0;9.0;
55686;PMS5003;41911;52.362;4.978;2023-04-01T01:35:25;7.0;7.0;
55686;PMS5003;41911;52.362;4.978;2023-04-01T01:35:58;5.0;5.0;
55686;PMS5003;41911;52.362;4.978;2023-04-01T01:36:32;9.0;7.0;
55686;PMS5003;41911;52.362;4.978;2023-04-01T01:37:05;9.0;6.0;
55686;PMS5003;41911;52.362;4.978;2023-04-01T01:37:42;4.0;4.0;
55686;PMS5003;41911;52.362;4.978;2023-04-01T01:38:16;9.0;7.0;
55686;PMS5003;41911;52.362;4.978;2023-04-01T01:38:49;6.0;5.0;
55686;PMS5003;41911;52.362;4.978;2023-04-01T01:39:27;4.0;4.0;
55686;PMS5003;41911;52.362;4.978;2023-04-01T01:40:05;8.0;8.0;
55686;PMS5003;41911;52.362;4.978;2023-04-01T01:40:39;8.0;7.0;
55686;PMS5003;41911;52.362;4.978;2023-04-01T01:41:13;7.0;7.0;
55686;PMS5003;41911;52.362;4.978;2023-04-01T01:41:47;7.0;7.0;
55686;PMS5003;41911;52.362;4.978;2023-04-01T01:42:19;6.0;6.0;
55686;PMS5003;41911;52.362;4.978;2023-04-01T01:42:54;6.0;6.0;
55686;PMS5003;41911;52.362;4.978;2023-04-01T01:43:30;5.0;5.0;
55686;PMS5003;41911;52.362;4.978;2023-04-01T01:44:05;9.0;6.0;
55686;PMS5003;41911;52.362;4.978;2023-04-01T01:44:38;8.0;7.0;
55686;PMS5003;41911;52.362;4.978;2023-04-01T01:45:12;6.0;6.0;
55686;PMS5003;41911;52.362;4.978;2023-04-01T01:45:48;8.0;8.0;
55686;PMS5003;41911;52.362;4.978;2023-04-01T01:46:23;9.0;8.0;
55686;PMS5003;41911;52.362;4.978;2023-04-01T01:46:57;8.0;7.0;
55686;PMS5003;41911;52.362;4.978;2023-04-01T01:47:29;7.0;7.0;
55686;PMS5003;41911;52.362;4.978;2023-04-01T01:48:02;8.0;8.0;
55686;PMS5003;41911;52.362;4.978;2023-04-01T01:48:35;11.0;10.0;
55686;PMS5003;41911;52.362;4.978;2023-04-01T01:49:07;10.0;9.0;
55686;PMS5003;41911;52.362;4.978;2023-04-01T01:49:42;9.0;9.0;
55686;PMS5003;41911;52.362;4.978;2023-04-01T01:50:13;9.0;8.0;
55686;PMS5003;41911;52.362;4.978;2023-04-01T01:50:46;12.0;10.0;
55686;PMS5003;41911;52.362;4.978;2023-04-01T01:51:18;10.0;8.0;
55686;PMS5003;41911;52.362;4.978;2023-04-01T01:51:53;12.0;11.0;
55686;PMS5003;41911;52.362;4.978;2023-04-01T01:52:24;10.0;8.0;
55686;PMS5003;41911;52.362;4.978;2023-04-01T01:53:01;10.0;10.0;
55686;PMS5003;41911;52.362;4.978;2023-04-01T01:53:34;12.0;11.0;
55686;PMS5003;41911;52.362;4.978;2023-04-01T01:54:05;13.0;12.0;
55686;PMS5003;41911;52.362;4.978;2023-04-01T01:54:46;12.0;10.0;
55686;PMS5003;41911;52.362;4.978;2023-04-01T01:55:26;14.0;13.0;
55686;PMS5003;41911;52.362;4.978;2023-04-01T01:55:59;12.0;11.0;
55686;PMS5003;41911;52.362;4.978;2023-04-01T01:56:30;15.0;15.0;
55686;PMS5003;41911;52.362;4.978;2023-04-01T01:57:05;13.0;12.0;
55686;PMS5003;41911;52.362;4.978;2023-04-01T01:57:39;14.0;11.0;
55686;PMS5003;41911;52.362;4.978;2023-04-01T01:58:13;13.0;12.0;
55686;PMS5003;41911;52.362;4.978;2023-04-01T01:58:48;15.0;14.0;
55686;PMS5003;41911;52.362;4.978;2023-04-01T01:59:24;18.0;16.0;
55686;PMS5003;41911;52.362;4.978;2023-04-01T01:59:59;20.0;17.0;
55686;PMS5003;41911;52.362;4.978;2023-04-01T02:00:34;19.0;16.0;
55686;PMS5003;41911;52.362;4.978;2023-04-01T02:01:07;21.0;18.0;
55686;PMS5003;41911;52.362;4.978;2023-04-01T02:01:43;20.0;17.0;
55686;PMS5003;41911;52.362;4.978;2023-04-01T02:02:18;20.0;17.0;
55686;PMS5003;41911;52.362;4.978;2023-04-01T02:02:51;24.0;19.0;
55686;PMS5003;41911;52.362;4.978;2023-04-01T02:03:24;21.0;18.0;
55686;PMS5003;41911;52.362;4.978;2023-04-01T02:03:57;24.0;23.0;
55686;PMS5003;41911;52.362;4.978;2023-04-01T02:04:29;25.0;22.0;
55686;PMS5003;41911;52.362;4.978;2023-04-01T02:05:00;20.0;17.0;
55686;PMS5003;41911;52.362;4.978;2023-04-01T02:05:33;25.0;22.0;
55686;PMS5003;41911;52.362;4.978;2023-04-01T02:06:06;21.0;18.0;
55686;PMS5003;41911;52.362;4.978;2023-04-01T02:06:41;21.0;19.0;
55686;PMS5003;41911;52.362;4.978;2023-04-01T02:07:20;15.0;15.0;
55686;PMS5003;41911;52.362;4.978;2023-04-01T02:07:59;19.0;17.0;
55686;PMS5003;41911;52.362;4.978;2023-04-01T02:08:35;17.0;16.0;
55686;PMS5003;41911;52.362;4.978;2023-04-01T02:09:12;21.0;19.0;
55686;PMS5003;41911;52.362;4.978;2023-04-01T02:09:43;22.0;21.0;
55686;PMS5003;41911;52.362;4.978;2023-04-01T02:10:14;20.0;19.0;
55686;PMS5003;41911;52.362;4.978;2023-04-01T02:10:48;22.0;19.0;
55686;PMS5003;41911;52.362;4.978;2023-04-01T02:11:31;20.0;19.0;
55686;PMS5003;41911;52.362;4.978;2023-04-01T02:12:08;19.0;18.0;
55686;PMS5003;41911;52.362;4.978;2023-04-01T02:12:41;20.0;19.0;
55686;PMS5003;41911;52.362;4.978;2023-04-01T02:13:16;24.0;21.0;
55686;PMS5003;41911;52.362;4.978;2023-04-01T02:13:52;19.0;16.0;
55686;PMS5003;41911;52.362;4.978;2023-04-01T02:14:26;24.0;21.0;
55686;PMS5003;41911;52.362;4.978;2023-04-01T02:15:03;24.0;22.0;
55686;PMS5003;41911;52.362;4.978;2023-04-01T02:15:40;32.0;25.0;
55686;PMS5003;41911;52.362;4.978;2023-04-01T02:16:16;20.0;19.0;
55686;PMS5003;41911;52.362;4.978;2023-04-01T02:16:53;21.0;20.0;
55686;PMS5003;41911;52.362;4.978;2023-04-01T02:17:29;21.0;18.0;
55686;PMS5003;41911;52.362;4.978;2023-04-01T02:18:01;24.0;23.0;
55686;PMS5003;41911;52.362;4.978;2023-04-01T02:18:33;23.0;21.0;
55686;PMS5003;41911;52.362;4.978;2023-04-01T02:19:06;20.0;19.0;
55686;PMS5003;41911;52.362;4.978;2023-04-01T02:19:39;18.0;17.0;
55686;PMS5003;41911;52.362;4.978;2023-04-01T02:20:18;22.0;20.0;
55686;PMS5003;41911;52.362;4.978;2023-04-01T02:20:52;28.0;25.0;
55686;PMS5003;41911;52.362;4.978;2023-04-01T02:21:24;18.0;18.0;
55686;PMS5003;41911;52.362;4.978;2023-04-01T02:22:00;18.0;16.0;
55686;PMS5003;41911;52.362;4.978;2023-04-01T02:22:34;21.0;19.0;
55686;PMS5003;41911;52.362;4.978;2023-04-01T02:23:08;19.0;18.0;
55686;PMS5003;41911;52.362;4.978;2023-04-01T02:23:41;19.0;18.0;
55686;PMS5003;41911;52.362;4.978;2023-04-01T02:24:13;22.0;21.0;
55686;PMS5003;41911;52.362;4.978;2023-04-01T02:24:45;20.0;17.0;
55686;PMS5003;41911;52.362;4.978;2023-04-01T02:25:18;21.0;18.0;
55686;PMS5003;41911;52.362;4.978;2023-04-01T02:25:54;19.0;18.0;
55686;PMS5003;41911;52.362;4.978;2023-04-01T02:26:25;19.0;17.0;
55686;PMS5003;41911;52.362;4.978;2023-04-01T02:26:57;22.0;21.0;
55686;PMS5003;41911;52.362;4.978;2023-04-01T02:27:28;23.0;22.0;
55686;PMS5003;41911;52.362;4.978;2023-04-01T02:28:00;19.0;18.0;
55686;PMS5003;41911;52.362;4.978;2023-04-01T02:28:34;21.0;19.0;
55686;PMS5003;41911;52.362;4.978;2023-04-01T02:29:11;20.0;19.0;
55686;PMS5003;41911;52.362;4.978;2023-04-01T02:29:42;22.0;20.0;
55686;PMS5003;41911;52.362;4.978;2023-04-01T02:30:14;19.0;17.0;
55686;PMS5003;41911;52.362;4.978;2023-04-01T02:30:46;22.0;21.0;
55686;PMS5003;41911;52.362;4.978;2023-04-01T02:31:20;21.0;20.0;
55686;PMS5003;41911;52.362;4.978;2023-04-01T02:31:53;25.0;22.0;
55686;PMS5003;41911;52.362;4.978;2023-04-01T02:32:25;18.0;17.0;
55686;PMS5003;41911;52.362;4.978;2023-04-01T02:32:59;27.0;24.0;
55686;PMS5003;41911;52.362;4.978;2023-04-01T02:33:31;23.0;21.0;
55686;PMS5003;41911;52.362;4.978;2023-04-01T02:34:03;24.0;23.0;
55686;PMS5003;41911;52.362;4.978;2023-04-01T02:34:34;19.0;17.0;
55686;PMS5003;41911;52.362;4.978;2023-04-01T02:35:07;26.0;23.0;
55686;PMS5003;41911;52.362;4.978;2023-04-01T02:35:40;14.0;14.0;
55686;PMS5003;41911;52.362;4.978;2023-04-01T02:36:12;21.0;19.0;
55686;PMS5003;41911;52.362;4.978;2023-04-01T02:36:44;21.0;19.0;
55686;PMS5003;41911;52.362;4.978;2023-04-01T02:37:17;18.0;17.0;
55686;PMS5003;41911;52.362;4.978;2023-04-01T02:37:48;23.0;19.0;
55686;PMS5003;41911;52.362;4.978;2023-04-01T02:38:22;18.0;18.0;
55686;PMS5003;41911;52.362;4.978;2023-04-01T02:38:53;19.0;16.0;
55686;PMS5003;41911;52.362;4.978;2023-04-01T02:39:26;20.0;19.0;
55686;PMS5003;41911;52.362;4.978;2023-04-01T02:39:58;17.0;17.0;
55686;PMS5003;41911;52.362;4.978;2023-04-01T02:40:40;24.0;21.0;
55686;PMS5003;41911;52.362;4.978;2023-04-01T02:41:11;18.0;17.0;
55686;PMS5003;41911;52.362;4.978;2023-04-01T02:41:43;19.0;18.0;
55686;PMS5003;41911;52.362;4.978;2023-04-01T02:42:16;21.0;19.0;
55686;PMS5003;41911;52.362;4.978;2023-04-01T02:42:47;26.0;20.0;
55686;PMS5003;41911;52.362;4.978;2023-04-01T02:43:18;18.0;16.0;
55686;PMS5003;41911;52.362;4.978;2023-04-01T02:43:49;15.0;15.0;
55686;PMS5003;41911;52.362;4.978;2023-04-01T02:44:20;19.0;17.0;
55686;PMS5003;41911;52.362;4.978;2023-04-01T02:44:50;19.0;14.0;
55686;PMS5003;41911;52.362;4.978;2023-04-01T02:45:21;20.0;19.0;
55686;PMS5003;41911;52.362;4.978;2023-04-01T02:45:53;18.0;18.0;
55686;PMS5003;41911;52.362;4.978;2023-04-01T02:46:24;25.0;19.0;
55686;PMS5003;41911;52.362;4.978;2023-04-01T02:46:55;25.0;22.0;
55686;PMS5003;41911;52.362;4.978;2023-04-01T02:47:26;20.0;18.0;
55686;PMS5003;41911;52.362;4.978;2023-04-01T02:47:57;20.0;19.0;
55686;PMS5003;41911;52.362;4.978;2023-04-01T02:48:29;21.0;20.0;
55686;PMS5003;41911;52.362;4.978;2023-04-01T02:49:00;17.0;15.0;
55686;PMS5003;41911;52.362;4.978;2023-04-01T02:49:31;19.0;17.0;
55686;PMS5003;41911;52.362;4.978;2023-04-01T02:50:03;16.0;13.0;
55686;PMS5003;41911;52.362;4.978;2023-04-01T02:50:35;17.0;16.0;
55686;PMS5003;41911;52.362;4.978;2023-04-01T02:51:06;22.0;20.0;
55686;PMS5003;41911;52.362;4.978;2023-04-01T02:51:39;19.0;16.0;
55686;PMS5003;41911;52.362;4.978;2023-04-01T02:52:10;22.0;20.0;
55686;PMS5003;41911;52.362;4.978;2023-04-01T02:52:40;17.0;15.0;
55686;PMS5003;41911;52.362;4.978;2023-04-01T02:53:11;18.0;16.0;
55686;PMS5003;41911;52.362;4.978;2023-04-01T02:53:42;17.0;15.0;
55686;PMS5003;41911;52.362;4.978;2023-04-01T02:54:13;17.0;15.0;
55686;PMS5003;41911;52.362;4.978;2023-04-01T02:54:44;15.0;14.0;
55686;PMS5003;41911;52.362;4.978;2023-04-01T02:55:15;12.0;12.0;
55686;PMS5003;41911;52.362;4.978;2023-04-01T02:55:48;16.0;16.0;
55686;PMS5003;41911;52.362;4.978;2023-04-01T02:56:19;15.0;14.0;
55686;PMS5003;41911;52.362;4.978;2023-04-01T02:56:50;15.0;13.0;
55686;PMS5003;41911;52.362;4.978;2023-04-01T02:57:21;18.0;15.0;
55686;PMS5003;41911;52.362;4.978;2023-04-01T02:57:53;15.0;13.0;
55686;PMS5003;41911;52.362;4.978;2023-04-01T02:58:24;16.0;15.0;
55686;PMS5003;41911;52.362;4.978;2023-04-01T02:58:55;15.0;15.0;
55686;PMS5003;41911;52.362;4.978;2023-04-01T02:59:26;16.0;16.0;
55686;PMS5003;41911;52.362;4.978;2023-04-01T02:59:57;15.0;12.0;
55686;PMS5003;41911;52.362;4.978;2023-04-01T03:00:28;22.0;19.0;
55686;PMS5003;41911;52.362;4.978;2023-04-01T03:00:59;14.0;13.0;
55686;PMS5003;41911;52.362;4.978;2023-04-01T03:01:30;19.0;17.0;
55686;PMS5003;41911;52.362;4.978;2023-04-01T03:02:01;15.0;14.0;
55686;PMS5003;41911;52.362;4.978;2023-04-01T03:02:32;19.0;17.0;
55686;PMS5003;41911;52.362;4.978;2023-04-01T03:03:03;19.0;16.0;
55686;PMS5003;41911;52.362;4.978;2023-04-01T03:03:34;17.0;16.0;
55686;PMS5003;41911;52.362;4.978;2023-04-01T03:04:05;18.0;15.0;
55686;PMS5003;41911;52.362;4.978;2023-04-01T03:04:36;18.0;17.0;
55686;PMS5003;41911;52.362;4.978;2023-04-01T03:05:07;21.0;20.0;
55686;PMS5003;41911;52.362;4.978;2023-04-01T03:05:38;22.0;19.0;
55686;PMS5003;41911;52.362;4.978;2023-04-01T03:06:10;15.0;13.0;
55686;PMS5003;41911;52.362;4.978;2023-04-01T03:06:43;12.0;11.0;
55686;PMS5003;41911;52.362;4.978;2023-04-01T03:07:14;15.0;13.0;
55686;PMS5003;41911;52.362;4.978;2023-04-01T03:07:45;20.0;15.0;
55686;PMS5003;41911;52.362;4.978;2023-04-01T03:08:16;16.0;14.0;
55686;PMS5003;41911;52.362;4.978;2023-04-01T03:08:47;16.0;15.0;
55686;PMS5003;41911;52.362;4.978;2023-04-01T03:09:19;17.0;16.0;
55686;PMS5003;41911;52.362;4.978;2023-04-01T03:09:50;13.0;12.0;
55686;PMS5003;41911;52.362;4.978;2023-04-01T03:10:21;14.0;14.0;
55686;PMS5003;41911;52.362;4.978;2023-04-01T03:10:52;15.0;13.0;
55686;PMS5003;41911;52.362;4.978;2023-04-01T03:11:24;12.0;10.0;
55686;PMS5003;41911;52.362;4.978;2023-04-01T03:11:54;13.0;12.0;
55686;PMS5003;41911;52.362;4.978;2023-04-01T03:12:28;12.0;12.0;
55686;PMS5003;41911;52.362;4.978;2023-04-01T03:12:59;15.0;14.0;
55686;PMS5003;41911;52.362;4.978;2023-04-01T03:13:30;14.0;12.0;
55686;PMS5003;41911;52.362;4.978;2023-04-01T03:14:01;13.0;13.0;
55686;PMS5003;41911;52.362;4.978;2023-04-01T03:14:32;14.0;12.0;
55686;PMS5003;41911;52.362;4.978;2023-04-01T03:15:03;12.0;11.0;
55686;PMS5003;41911;52.362;4.978;2023-04-01T03:15:35;12.0;10.0;
55686;PMS5003;41911;52.362;4.978;2023-04-01T03:16:06;12.0;11.0;
55686;PMS5003;41911;52.362;4.978;2023-04-01T03:16:37;9.0;9.0;
55686;PMS5003;41911;52.362;4.978;2023-04-01T03:17:08;11.0;11.0;
55686;PMS5003;41911;52.362;4.978;2023-04-01T03:17:39;13.0;13.0;
55686;PMS5003;41911;52.362;4.978;2023-04-01T03:18:11;10.0;9.0;
55686;PMS5003;41911;52.362;4.978;2023-04-01T03:18:42;11.0;11.0;
55686;PMS5003;41911;52.362;4.978;2023-04-01T03:19:14;12.0;12.0;
55686;PMS5003;41911;52.362;4.978;2023-04-01T03:19:45;9.0;9.0;
55686;PMS5003;41911;52.362;4.978;2023-04-01T03:20:16;10.0;9.0;
55686;PMS5003;41911;52.362;4.978;2023-04-01T03:20:47;10.0;8.0;
55686;PMS5003;41911;52.362;4.978;2023-04-01T03:21:19;10.0;10.0;
55686;PMS5003;41911;52.362;4.978;2023-04-01T03:21:51;12.0;10.0;
55686;PMS5003;41911;52.362;4.978;2023-04-01T03:22:23;10.0;9.0;
55686;PMS5003;41911;52.362;4.978;2023-04-01T03:22:54;8.0;7.0;
55686;PMS5003;41911;52.362;4.978;2023-04-01T03:23:25;8.0;8.0;
55686;PMS5003;41911;52.362;4.978;2023-04-01T03:23:56;12.0;11.0;
55686;PMS5003;41911;52.362;4.978;2023-04-01T03:24:29;9.0;9.0;
55686;PMS5003;41911;52.362;4.978;2023-04-01T03:25:00;8.0;8.0;
55686;PMS5003;41911;52.362;4.978;2023-04-01T03:25:32;10.0;10.0;
55686;PMS5003;41911;52.362;4.978;2023-04-01T03:26:02;9.0;9.0;
55686;PMS5003;41911;52.362;4.978;2023-04-01T03:26:33;11.0;10.0;
55686;PMS5003;41911;52.362;4.978;2023-04-01T03:27:04;10.0;10.0;
55686;PMS5003;41911;52.362;4.978;2023-04-01T03:27:35;10.0;10.0;
55686;PMS5003;41911;52.362;4.978;2023-04-01T03:28:07;10.0;10.0;
55686;PMS5003;41911;52.362;4.978;2023-04-01T03:28:38;10.0;10.0;
55686;PMS5003;41911;52.362;4.978;2023-04-01T03:29:09;14.0;14.0;
55686;PMS5003;41911;52.362;4.978;2023-04-01T03:29:40;13.0;12.0;
55686;PMS5003;41911;52.362;4.978;2023-04-01T03:30:11;11.0;10.0;
55686;PMS5003;41911;52.362;4.978;2023-04-01T03:30:42;11.0;11.0;
55686;PMS5003;41911;52.362;4.978;2023-04-01T03:31:13;11.0;9.0;
55686;PMS5003;41911;52.362;4.978;2023-04-01T03:31:44;10.0;10.0;